Time;durP1;ratioP1;P1;durP2;ratioP2;P2;SDS_P1;SDS_P2;PMS_P1;PMS_P2;Temp;Humidity;BMP_temperature;BMP_pressure;BME280_temperature;BME280_humidity;BME280_pressure;Samples;Min_cycle;Max_cycle;Signal;HPM_P1;HPM_P2
2023/09/05 00:01:33;;;;;;;3.60;2.20;;;;;;;-141.50;100.00;63355.56;5053953;28;20044;-79
2023/09/05 00:04:00;;;;;;;7.25;2.45;;;;;;;-141.50;100.00;63355.56;5061348;28;20049;-80
2023/09/05 00:06:27;;;;;;;4.70;2.38;;;;;;;-141.50;100.00;63355.56;5051817;28;20049;-79
2023/09/05 00:08:56;;;;;;;4.55;2.60;;;;;;;-141.50;100.00;63355.56;5058939;28;20049;-79
2023/09/05 00:11:25;;;;;;;5.60;2.28;;;;;;;-141.50;100.00;63355.56;5043267;28;20045;-78
2023/09/05 00:13:52;;;;;;;4.20;2.35;;;;;;;-141.50;100.00;63355.56;5021926;28;20048;-79
2023/09/05 00:16:19;;;;;;;4.50;2.38;;;;;;;-141.50;100.00;63355.56;5054124;28;20537;-78
2023/09/05 00:18:49;;;;;;;3.90;2.22;;;;;;;-141.50;100.00;63355.56;5053141;28;20115;-79
2023/09/05 00:21:18;;;;;;;4.03;2.58;;;;;;;-141.50;100.00;63355.56;5039413;28;20053;-80
2023/09/05 00:23:45;;;;;;;4.60;2.70;;;;;;;-141.50;100.00;63355.56;5042218;28;20045;-79
2023/09/05 00:26:13;;;;;;;3.70;2.20;;;;;;;-141.50;100.00;63355.56;5028616;28;20061;-79
2023/09/05 00:28:44;;;;;;;4.10;2.45;;;;;;;-141.50;100.00;63355.56;5023745;28;20788;-79
2023/09/05 00:31:11;;;;;;;6.55;2.65;;;;;;;-141.50;100.00;63355.56;5038850;28;20045;-81
2023/09/05 00:33:38;;;;;;;3.67;2.35;;;;;;;-141.50;100.00;63355.56;5036778;28;20231;-79
2023/09/05 00:36:05;;;;;;;4.45;2.20;;;;;;;-141.50;100.00;63355.56;5043664;28;20519;-79
2023/09/05 00:38:33;;;;;;;4.45;2.60;;;;;;;-141.50;100.00;63355.56;5040098;28;20075;-79
2023/09/05 00:41:02;;;;;;;3.55;2.38;;;;;;;-141.50;100.00;63355.56;5022569;28;20046;-79
2023/09/05 00:43:29;;;;;;;3.63;2.55;;;;;;;-141.50;100.00;63355.56;5021547;28;20042;-79
2023/09/05 00:45:56;;;;;;;3.30;2.00;;;;;;;-141.50;100.00;63355.56;5030558;28;20049;-80
2023/09/05 00:48:27;;;;;;;3.55;2.17;;;;;;;-141.50;100.00;63355.56;5033045;28;20052;-79
2023/09/05 00:50:59;;;;;;;3.47;2.05;;;;;;;-141.50;100.00;63355.56;5020275;28;20034;-80
2023/09/05 00:53:27;;;;;;;3.85;2.00;;;;;;;-141.50;100.00;63355.56;5024462;28;20045;-79
2023/09/05 00:55:54;;;;;;;4.38;2.45;;;;;;;-141.50;100.00;63355.56;5027766;28;20021;-78
2023/09/05 00:58:22;;;;;;;3.67;2.38;;;;;;;-141.50;100.00;63355.56;5031594;28;20038;-79
2023/09/05 01:00:49;;;;;;;4.00;2.45;;;;;;;-141.50;100.00;63355.56;5037971;28;20050;-79
2023/09/05 01:03:16;;;;;;;3.88;2.35;;;;;;;-141.50;100.00;63355.56;5044349;28;20037;-80
2023/09/05 01:05:47;;;;;;;5.80;2.90;;;;;;;-141.50;100.00;63355.56;5070998;28;20067;-79
2023/09/05 01:08:25;;;;;;;5.57;2.33;;;;;;;-141.50;100.00;63355.56;5061595;28;20182;-79
2023/09/05 01:10:59;;;;;;;3.47;2.08;;;;;;;-141.50;100.00;63355.56;5047435;28;21243;-79
2023/09/05 01:13:27;;;;;;;3.28;2.20;;;;;;;-141.50;100.00;63355.56;5047705;28;20044;-80
2023/09/05 01:15:54;;;;;;;6.30;2.53;;;;;;;-141.50;100.00;63355.56;5048259;28;20041;-80
2023/09/05 01:18:21;;;;;;;4.18;2.22;;;;;;;-141.50;100.00;63355.56;5056821;28;20465;-79
2023/09/05 01:21:10;;;;;;;3.85;2.28;;;;;;;-141.50;100.00;63355.56;5066585;28;20041;-79
2023/09/05 01:23:47;;;;;;;3.33;2.13;;;;;;;-141.50;100.00;63355.56;5066790;28;20048;-79
2023/09/05 01:26:15;;;;;;;3.83;2.30;;;;;;;-141.50;100.00;63355.56;5049502;28;20045;-80
2023/09/05 01:28:44;;;;;;;4.22;2.38;;;;;;;-141.50;100.00;63355.56;5070670;28;20033;-79
2023/09/05 01:31:11;;;;;;;4.97;2.60;;;;;;;-141.50;100.00;63355.56;5054162;28;20653;-79
2023/09/05 01:33:39;;;;;;;3.55;2.20;;;;;;;-141.50;100.00;63355.56;5071321;28;20072;-79
2023/09/05 01:36:07;;;;;;;3.80;2.15;;;;;;;-141.50;100.00;63355.56;5094219;22;20065;-82
2023/09/05 01:38:35;;;;;;;4.70;2.33;;;;;;;-141.50;100.00;63355.56;5073816;28;20056;-83
2023/09/05 01:41:02;;;;;;;3.50;2.38;;;;;;;-141.50;100.00;63355.56;5078915;28;20624;-82
2023/09/05 01:43:29;;;;;;;3.58;2.35;;;;;;;-141.50;100.00;63355.56;5062983;28;20048;-82
2023/09/05 01:45:56;;;;;;;3.25;2.00;;;;;;;-141.50;100.00;63355.56;5044547;28;20057;-84
2023/09/05 01:48:23;;;;;;;3.22;2.10;;;;;;;-141.50;100.00;63355.56;5058808;28;20056;-81
2023/09/05 01:50:49;;;;;;;3.95;2.25;;;;;;;-141.50;100.00;63355.56;5045571;28;20056;-82
2023/09/05 01:53:17;;;;;;;4.15;2.33;;;;;;;-141.50;100.00;63355.56;5057807;28;20045;-83
2023/09/05 01:55:44;;;;;;;3.92;2.20;;;;;;;-141.50;100.00;63355.56;5048833;28;20045;-82
2023/09/05 01:58:11;;;;;;;5.07;2.28;;;;;;;-141.50;100.00;63355.56;5058761;28;20098;-81
2023/09/05 02:00:37;;;;;;;2.50;1.83;;;;;;;-141.50;100.00;63355.56;5057516;28;20879;-82
2023/09/05 02:03:04;;;;;;;4.43;2.30;;;;;;;-141.50;100.00;63355.56;5047617;28;20049;-84
2023/09/05 02:05:32;;;;;;;4.03;2.30;;;;;;;-141.50;100.00;63355.56;5058976;28;20064;-82
2023/09/05 02:07:58;;;;;;;3.95;2.22;;;;;;;-141.50;100.00;63355.56;5062764;28;20052;-83
2023/09/05 02:10:25;;;;;;;4.20;2.30;;;;;;;-141.50;100.00;63355.56;5051508;28;20052;-82
2023/09/05 02:12:52;;;;;;;4.53;2.30;;;;;;;-141.50;100.00;63355.56;5063283;28;20051;-83
2023/09/05 02:15:19;;;;;;;3.15;2.17;;;;;;;-141.50;100.00;63355.56;5030630;28;20692;-83
2023/09/05 02:17:46;;;;;;;4.32;2.55;;;;;;;-141.50;100.00;63355.56;5045920;28;20049;-80
2023/09/05 02:20:14;;;;;;;4.97;2.60;;;;;;;-141.50;100.00;63355.56;5051004;28;20049;-83
2023/09/05 02:22:43;;;;;;;3.60;2.20;;;;;;;-141.50;100.00;63355.56;5066743;28;20044;-83
2023/09/05 02:25:11;;;;;;;4.38;2.42;;;;;;;-141.50;100.00;63355.56;5060902;28;20049;-82
2023/09/05 02:27:39;;;;;;;4.40;2.42;;;;;;;-141.50;100.00;63355.56;5036726;28;20055;-84
2023/09/05 02:30:07;;;;;;;3.65;2.33;;;;;;;-141.50;100.00;63355.56;5070424;28;20083;-80
2023/09/05 02:32:34;;;;;;;2.55;1.80;;;;;;;-141.50;100.00;63355.56;5052072;28;20072;-81
2023/09/05 02:35:01;;;;;;;4.50;2.30;;;;;;;-141.50;100.00;63355.56;5051928;28;20051;-85
2023/09/05 02:37:29;;;;;;;3.85;2.35;;;;;;;-141.50;100.00;63355.56;5034531;28;20055;-84
2023/09/05 02:39:55;;;;;;;4.18;2.53;;;;;;;-141.50;100.00;63355.56;5067229;28;20110;-83
2023/09/05 02:42:22;;;;;;;4.28;2.67;;;;;;;-141.50;100.00;63355.56;5067591;28;22151;-83
2023/09/05 02:44:51;;;;;;;7.65;2.97;;;;;;;-141.50;100.00;63355.56;5035455;28;20048;-83
2023/09/05 02:47:18;;;;;;;5.05;2.85;;;;;;;-141.50;100.00;63355.56;5051203;28;20061;-82
2023/09/05 02:49:46;;;;;;;4.32;2.10;;;;;;;-141.50;100.00;63355.56;5067788;28;20049;-82
2023/09/05 02:52:12;;;;;;;4.07;2.50;;;;;;;-141.50;100.00;63355.56;5062593;28;20132;-85
2023/09/05 02:54:39;;;;;;;4.20;2.20;;;;;;;-141.50;100.00;63355.56;5026128;28;20127;-79
2023/09/05 02:57:06;;;;;;;3.83;2.10;;;;;;;-141.50;100.00;63355.56;5020792;28;20045;-82
2023/09/05 02:59:33;;;;;;;3.63;2.25;;;;;;;-141.50;100.00;63355.56;5064288;28;20060;-82
2023/09/05 03:02:00;;;;;;;4.88;2.05;;;;;;;-141.50;100.00;63355.56;5040381;28;20413;-83
2023/09/05 03:04:32;;;;;;;4.88;2.70;;;;;;;-141.50;100.00;63355.56;5056234;28;20052;-84
2023/09/05 03:07:03;;;;;;;3.45;2.10;;;;;;;-141.50;100.00;63355.56;5038035;28;21422;-80
2023/09/05 03:09:30;;;;;;;4.20;2.28;;;;;;;-141.50;100.00;63355.56;5020995;28;20064;-81
2023/09/05 03:11:57;;;;;;;4.65;2.13;;;;;;;-141.50;100.00;63355.56;5021205;28;20174;-81
2023/09/05 03:14:25;;;;;;;6.65;2.30;;;;;;;-141.50;100.00;63355.56;5054468;28;20059;-80
2023/09/05 03:16:52;;;;;;;4.20;2.28;;;;;;;-141.50;100.00;63355.56;5034618;28;20041;-82
2023/09/05 03:19:21;;;;;;;5.38;2.70;;;;;;;-141.50;100.00;63355.56;5027860;28;20049;-81
2023/09/05 03:21:50;;;;;;;4.97;2.30;;;;;;;-141.50;100.00;63355.56;5048517;28;20033;-82
2023/09/05 03:24:17;;;;;;;7.95;2.80;;;;;;;-141.50;100.00;63355.56;5024571;28;20049;-79
2023/09/05 03:26:45;;;;;;;4.07;2.63;;;;;;;-141.50;100.00;63355.56;5042461;28;20049;-83
2023/09/05 03:29:15;;;;;;;5.45;2.40;;;;;;;-141.50;100.00;63355.56;5041654;28;20052;-83
2023/09/05 03:31:43;;;;;;;5.40;2.42;;;;;;;-141.50;100.00;63355.56;5049906;28;20056;-83
2023/09/05 03:34:16;;;;;;;5.43;2.47;;;;;;;-141.50;100.00;63355.56;5046335;28;20053;-81
2023/09/05 03:36:43;;;;;;;4.53;2.40;;;;;;;-141.50;100.00;63355.56;5041466;28;20222;-82
2023/09/05 03:39:10;;;;;;;5.88;2.53;;;;;;;-141.50;100.00;63355.56;5041263;28;20053;-81
2023/09/05 03:41:37;;;;;;;3.95;2.22;;;;;;;-141.50;100.00;63355.56;5058751;28;20049;-83
2023/09/05 03:44:04;;;;;;;4.88;2.63;;;;;;;-141.50;100.00;63355.56;5058464;28;20083;-83
2023/09/05 03:46:31;;;;;;;4.55;2.30;;;;;;;-141.50;100.00;63355.56;5058671;28;20202;-83
2023/09/05 03:48:58;;;;;;;3.80;2.33;;;;;;;-141.50;100.00;63355.56;5057961;28;20041;-83
2023/09/05 03:51:27;;;;;;;3.47;2.25;;;;;;;-141.50;100.00;63355.56;5047218;28;20065;-85
2023/09/05 03:53:58;;;;;;;5.05;2.95;;;;;;;-141.50;100.00;63355.56;5054809;28;20107;-85
2023/09/05 03:56:25;;;;;;;7.43;2.58;;;;;;;-141.50;100.00;63355.56;5040199;28;20613;-85
2023/09/05 03:58:52;;;;;;;4.30;2.63;;;;;;;-141.50;100.00;63355.56;5059772;28;20076;-83
2023/09/05 04:01:19;;;;;;;3.80;2.25;;;;;;;-141.50;100.00;63355.56;5050847;28;20300;-82
2023/09/05 04:03:46;;;;;;;4.03;2.63;;;;;;;-141.50;100.00;63355.56;5043055;28;20091;-82
2023/09/05 04:06:13;;;;;;;3.95;2.30;;;;;;;-141.50;100.00;63355.56;5050095;28;20076;-82
2023/09/05 04:08:40;;;;;;;7.63;2.78;;;;;;;-141.50;100.00;63355.56;5034277;28;20296;-84
2023/09/05 04:11:07;;;;;;;4.22;2.58;;;;;;;-141.50;100.00;63355.56;5058384;28;20052;-82
2023/09/05 04:13:34;;;;;;;4.90;2.78;;;;;;;-141.50;100.00;63355.56;5061270;28;20047;-82
2023/09/05 04:16:04;;;;;;;4.75;2.75;;;;;;;-141.50;100.00;63355.56;5062612;28;20052;-82
2023/09/05 04:18:34;;;;;;;4.28;2.60;;;;;;;-141.50;100.00;63355.56;5058727;28;20045;-85
2023/09/05 04:21:01;;;;;;;4.05;2.40;;;;;;;-141.50;100.00;63355.56;5039231;28;20037;-84
2023/09/05 04:23:28;;;;;;;3.88;2.70;;;;;;;-141.50;100.00;63355.56;5063223;28;20057;-84
2023/09/05 04:25:57;;;;;;;5.00;2.53;;;;;;;-141.50;100.00;63355.56;5046389;28;20145;-83
2023/09/05 04:28:25;;;;;;;5.15;2.97;;;;;;;-141.50;100.00;63355.56;5032335;28;20196;-84
2023/09/05 04:30:54;;;;;;;4.85;2.85;;;;;;;-141.50;100.00;63355.56;5052911;28;20488;-84
2023/09/05 04:33:31;;;;;;;3.90;2.58;;;;;;;-141.50;100.00;63355.56;5030754;28;20433;-82
2023/09/05 04:35:58;;;;;;;4.18;2.78;;;;;;;-141.50;100.00;63355.56;5055367;28;20447;-84
2023/09/05 04:38:25;;;;;;;5.03;2.63;;;;;;;-141.50;100.00;63355.56;5067968;28;20047;-87
2023/09/05 04:40:52;;;;;;;8.13;2.72;;;;;;;-141.50;100.00;63355.56;5081871;28;20266;-85
2023/09/05 04:43:20;;;;;;;5.53;2.72;;;;;;;-141.50;100.00;63355.56;5059262;28;20048;-84
2023/09/05 04:45:54;;;;;;;6.50;2.60;;;;;;;-141.50;100.00;63355.56;5056017;28;20045;-83
2023/09/05 04:48:21;;;;;;;3.67;2.83;;;;;;;-141.50;100.00;63355.56;5053126;28;20041;-86
2023/09/05 04:50:48;;;;;;;6.05;2.60;;;;;;;-141.50;100.00;63355.56;5071885;28;20052;-85
2023/09/05 04:53:15;;;;;;;5.88;2.83;;;;;;;-141.50;100.00;63355.56;5066833;28;20102;-85
2023/09/05 04:55:42;;;;;;;3.08;2.28;;;;;;;-141.50;100.00;63355.56;5066642;28;20056;-83
2023/09/05 04:58:14;;;;;;;3.25;2.42;;;;;;;-141.50;100.00;63355.56;5061934;28;20061;-83
2023/09/05 05:00:41;;;;;;;5.13;2.67;;;;;;;-141.50;100.00;63355.56;5039691;28;20118;-84
2023/09/05 05:03:08;;;;;;;5.75;2.42;;;;;;;-141.50;100.00;63355.56;5056631;28;20519;-82
2023/09/05 05:05:36;;;;;;;5.72;2.45;;;;;;;-141.50;100.00;63355.56;5049644;28;20045;-83
2023/09/05 05:08:03;;;;;;;5.78;2.42;;;;;;;-141.50;100.00;63355.56;5031323;28;20049;-83
2023/09/05 05:10:33;;;;;;;4.45;2.53;;;;;;;-141.50;100.00;63355.56;5054915;28;20049;-82
2023/09/05 05:13:00;;;;;;;4.57;2.00;;;;;;;-141.50;100.00;63355.56;5056695;28;20044;-84
2023/09/05 05:15:27;;;;;;;5.47;2.38;;;;;;;-141.50;100.00;63355.56;5056108;28;20436;-80
2023/09/05 05:17:54;;;;;;;4.32;2.08;;;;;;;-141.50;100.00;63355.56;5034020;28;20045;-80
2023/09/05 05:20:21;;;;;;;4.32;2.25;;;;;;;-141.50;100.00;63355.56;5046803;28;20146;-83
2023/09/05 05:22:48;;;;;;;5.95;2.33;;;;;;;-141.50;100.00;63355.56;5056917;28;20049;-83
2023/09/05 05:25:14;;;;;;;4.85;2.72;;;;;;;-141.50;100.00;63355.56;5034439;28;20044;-80
2023/09/05 05:27:41;;;;;;;3.20;2.13;;;;;;;-141.50;100.00;63355.56;5040701;28;20060;-80
2023/09/05 05:30:09;;;;;;;3.78;2.20;;;;;;;-141.50;100.00;63355.56;5049893;28;20456;-81
2023/09/05 05:32:35;;;;;;;3.33;2.22;;;;;;;-141.50;100.00;63355.56;5050047;28;20053;-82
2023/09/05 05:35:02;;;;;;;7.07;2.42;;;;;;;-141.50;100.00;63355.56;5049969;28;20051;-82
2023/09/05 05:37:29;;;;;;;5.88;2.00;;;;;;;-141.50;100.00;63355.56;5051254;28;20044;-81
2023/09/05 05:39:56;;;;;;;4.55;2.60;;;;;;;-141.50;100.00;63355.56;5022319;28;20049;-81
2023/09/05 05:42:23;;;;;;;5.30;2.40;;;;;;;-141.50;100.00;63355.56;5038821;28;20492;-80
2023/09/05 05:44:49;;;;;;;7.53;2.40;;;;;;;-141.50;100.00;63355.56;5024406;28;20041;-80
2023/09/05 05:47:16;;;;;;;4.22;2.10;;;;;;;-141.50;100.00;63355.56;5053208;28;20063;-81
2023/09/05 05:49:44;;;;;;;4.22;2.25;;;;;;;-141.50;100.00;63355.56;5044578;28;20091;-82
2023/09/05 05:52:10;;;;;;;3.67;1.83;;;;;;;-141.50;100.00;63355.56;5039454;28;20040;-81
2023/09/05 05:54:37;;;;;;;4.47;2.40;;;;;;;-141.50;100.00;63355.56;5052144;28;20049;-82
2023/09/05 05:57:04;;;;;;;4.35;2.15;;;;;;;-141.50;100.00;63355.56;5036728;28;20535;-81
2023/09/05 05:59:31;;;;;;;3.88;1.90;;;;;;;-141.50;100.00;63355.56;5049725;28;20075;-81
2023/09/05 06:01:59;;;;;;;3.70;2.05;;;;;;;-141.50;100.00;63355.56;5031624;28;20045;-81
2023/09/05 06:04:26;;;;;;;3.65;1.85;;;;;;;-141.50;100.00;63355.56;5047326;28;20047;-80
2023/09/05 06:06:53;;;;;;;4.20;2.00;;;;;;;-141.50;100.00;63355.56;5050981;28;20048;-82
2023/09/05 06:09:20;;;;;;;4.40;2.00;;;;;;;-141.50;100.00;63355.56;5032425;28;20492;-81
2023/09/05 06:11:47;;;;;;;3.83;1.90;;;;;;;-141.50;100.00;63355.56;5050349;28;20045;-81
2023/09/05 06:14:14;;;;;;;4.53;1.98;;;;;;;-141.50;100.00;63355.56;5043470;28;20051;-82
2023/09/05 06:16:45;;;;;;;5.78;1.50;;;;;;;-141.50;100.00;63355.56;5050176;28;20071;-82
2023/09/05 06:19:13;;;;;;;2.88;1.58;;;;;;;-141.50;100.00;63355.56;5037302;28;20564;-80
2023/09/05 06:21:41;;;;;;;2.42;1.50;;;;;;;-141.50;100.00;63355.56;5039526;28;20048;-79
2023/09/05 06:24:08;;;;;;;2.20;1.42;;;;;;;-141.50;100.00;63355.56;5031956;28;20044;-81
2023/09/05 06:26:38;;;;;;;1.65;1.17;;;;;;;-141.50;100.00;63355.56;5047244;28;20048;-81
2023/09/05 06:29:05;;;;;;;2.22;1.40;;;;;;;-141.50;100.00;63355.56;5048465;28;20071;-81
2023/09/05 06:31:32;;;;;;;3.70;1.55;;;;;;;-141.50;100.00;63355.56;5032600;28;20045;-84
2023/09/05 06:33:58;;;;;;;2.17;1.10;;;;;;;-141.50;100.00;63355.56;5036208;28;20500;-81
2023/09/05 06:36:25;;;;;;;2.47;1.17;;;;;;;-141.50;100.00;63355.56;5033141;28;20045;-80
2023/09/05 06:38:52;;;;;;;2.75;1.20;;;;;;;-141.50;100.00;63355.56;5042653;28;20040;-84
2023/09/05 06:41:19;;;;;;;2.45;1.20;;;;;;;-141.50;100.00;63355.56;5048858;28;20068;-83
2023/09/05 06:43:48;;;;;;;1.52;1.02;;;;;;;-141.50;100.00;63355.56;5049233;28;20700;-83
2023/09/05 06:46:15;;;;;;;4.60;1.42;;;;;;;-141.50;100.00;63355.56;5048049;28;20540;-82
2023/09/05 06:48:43;;;;;;;2.15;1.20;;;;;;;-141.50;100.00;63355.56;5040128;28;20052;-84
2023/09/05 06:51:09;;;;;;;3.20;1.40;;;;;;;-141.50;100.00;63355.56;5043498;28;20045;-82
2023/09/05 06:53:37;;;;;;;1.95;1.30;;;;;;;-141.50;100.00;63355.56;5016549;28;20049;-82
2023/09/05 06:56:05;;;;;;;2.20;1.10;;;;;;;-141.50;100.00;63355.56;5006372;28;20112;-82
2023/09/05 06:58:32;;;;;;;1.75;1.05;;;;;;;-141.50;100.00;63355.56;5059263;28;20049;-84
2023/09/05 07:01:04;;;;;;;1.63;1.10;;;;;;;-141.50;100.00;63355.56;5057068;28;20035;-85
2023/09/05 07:03:31;;;;;;;1.92;1.10;;;;;;;-141.50;100.00;63355.56;5068271;28;20059;-85
2023/09/05 07:06:02;;;;;;;3.08;1.10;;;;;;;-141.50;100.00;63355.56;5065829;28;20049;-86
2023/09/05 07:08:33;;;;;;;2.70;1.25;;;;;;;-141.50;100.00;63355.56;5042094;28;20044;-83
2023/09/05 07:11:00;;;;;;;1.58;0.90;;;;;;;-141.50;100.00;63355.56;5040018;28;20052;-84
2023/09/05 07:13:27;;;;;;;2.45;0.75;;;;;;;-141.50;100.00;63355.56;5049405;28;20136;-84
2023/09/05 07:15:54;;;;;;;1.73;0.90;;;;;;;-141.50;100.00;63355.56;5048152;28;20037;-84
2023/09/05 07:18:21;;;;;;;3.80;0.75;;;;;;;-141.50;100.00;63355.56;5017843;28;21578;-83
2023/09/05 07:20:49;;;;;;;2.90;1.60;;;;;;;-141.50;100.00;63355.56;5030400;28;20547;-83
2023/09/05 07:23:16;;;;;;;2.40;1.20;;;;;;;-141.50;100.00;63355.56;5032605;28;20392;-84
2023/09/05 07:25:42;;;;;;;2.15;0.90;;;;;;;-141.50;100.00;63355.56;5048395;28;20145;-82
2023/09/05 07:28:10;;;;;;;1.65;0.90;;;;;;;-141.50;100.00;63355.56;5048773;28;20508;-85
2023/09/05 07:30:36;;;;;;;1.27;0.80;;;;;;;-141.50;100.00;63355.56;5048775;28;20044;-85
2023/09/05 07:33:04;;;;;;;1.67;0.90;;;;;;;-141.50;100.00;63355.56;5035502;28;20045;-84
2023/09/05 07:35:33;;;;;;;1.92;0.80;;;;;;;-141.50;100.00;63355.56;5046448;28;20037;-85
2023/09/05 07:38:00;;;;;;;1.63;1.05;;;;;;;-141.50;100.00;63355.56;5031984;28;20049;-82
2023/09/05 07:40:30;;;;;;;1.90;0.93;;;;;;;-141.50;100.00;63355.56;5048928;28;20068;-83
2023/09/05 07:42:57;;;;;;;2.17;1.10;;;;;;;-141.50;100.00;63355.56;5040828;28;20790;-81
2023/09/05 07:45:25;;;;;;;1.52;0.80;;;;;;;-141.50;100.00;63355.56;5045448;28;20063;-84
2023/09/05 07:47:52;;;;;;;2.08;1.00;;;;;;;-141.50;100.00;63355.56;5056389;28;20051;-84
2023/09/05 07:50:19;;;;;;;1.52;0.70;;;;;;;-141.50;100.00;63355.56;5070378;28;20083;-86
2023/09/05 07:52:47;;;;;;;5.60;0.88;;;;;;;-141.50;100.00;63355.56;5070791;28;20551;-84
2023/09/05 07:55:14;;;;;;;1.55;0.90;;;;;;;-141.50;100.00;63355.56;5049891;28;20094;-84
2023/09/05 07:57:41;;;;;;;1.88;0.70;;;;;;;-141.50;100.00;63355.56;5042753;28;20044;-84
2023/09/05 08:00:09;;;;;;;1.65;0.88;;;;;;;-141.50;100.00;63355.56;5033301;28;20052;-82
2023/09/05 08:02:39;;;;;;;1.70;0.80;;;;;;;-141.50;100.00;63355.56;5052276;28;20067;-83
2023/09/05 08:05:07;;;;;;;1.15;0.63;;;;;;;-141.50;100.00;63355.56;5055026;28;20049;-84
2023/09/05 08:07:35;;;;;;;2.00;0.75;;;;;;;-141.50;100.00;63355.56;5030238;28;20045;-83
2023/09/05 08:10:03;;;;;;;1.52;0.80;;;;;;;-141.50;100.00;63355.56;5054715;28;20167;-85
2023/09/05 08:12:29;;;;;;;1.75;1.00;;;;;;;-141.50;100.00;63355.56;5047014;28;20051;-86
2023/09/05 08:18:43;;;;;;;1.42;0.88;;;;;;;-141.50;100.00;63355.56;5039538;28;21045;-85
2023/09/05 08:21:10;;;;;;;1.30;0.90;;;;;;;-141.50;100.00;63355.56;5047284;28;20079;-84
2023/09/05 08:23:37;;;;;;;2.10;0.80;;;;;;;-141.50;100.00;63355.56;5051765;28;20087;-84
2023/09/05 08:26:05;;;;;;;2.10;0.95;;;;;;;-141.50;100.00;63355.56;5060083;28;20057;-83
2023/09/05 08:28:33;;;;;;;1.50;0.80;;;;;;;-141.50;100.00;63355.56;5053147;28;20041;-84
2023/09/05 08:31:02;;;;;;;2.00;1.02;;;;;;;-141.50;100.00;63355.56;5048917;28;20033;-85
2023/09/05 08:33:43;;;;;;;2.47;1.25;;;;;;;-141.50;100.00;63355.56;5045830;28;20075;-85
2023/09/05 08:36:10;;;;;;;2.50;1.48;;;;;;;-141.50;100.00;63355.56;5042732;28;20094;-84
2023/09/05 08:38:39;;;;;;;2.00;1.00;;;;;;;-141.50;100.00;63355.56;5055470;28;20645;-82
2023/09/05 08:41:07;;;;;;;1.42;0.90;;;;;;;-141.50;100.00;63355.56;5064518;28;20049;-84
2023/09/05 08:43:35;;;;;;;2.40;1.08;;;;;;;-141.50;100.00;63355.56;5068578;28;20044;-87
2023/09/05 08:46:04;;;;;;;1.23;0.80;;;;;;;-141.50;100.00;63355.56;5059057;28;21180;-85
2023/09/05 08:48:31;;;;;;;1.58;0.80;;;;;;;-141.50;100.00;63355.56;5022294;28;20056;-84
2023/09/05 08:51:18;;;;;;;2.42;1.00;;;;;;;-141.50;100.00;63355.56;5049308;28;20065;-83
2023/09/05 08:54:06;;;;;;;3.95;0.88;;;;;;;-141.50;100.00;63355.56;5050183;28;20045;-82
2023/09/05 08:56:33;;;;;;;1.75;0.82;;;;;;;-141.50;100.00;63355.56;5049505;28;20049;-82
2023/09/05 08:59:01;;;;;;;1.85;1.00;;;;;;;-141.50;100.00;63355.56;5049406;28;20049;-83
2023/09/05 09:01:31;;;;;;;1.60;0.98;;;;;;;-141.50;100.00;63355.56;5048742;28;20047;-86
2023/09/05 09:03:59;;;;;;;3.03;1.42;;;;;;;-141.50;100.00;63355.56;5038531;28;20114;-83
2023/09/05 09:06:27;;;;;;;1.67;1.10;;;;;;;-141.50;100.00;63355.56;5031793;28;20073;-82
2023/09/05 09:08:54;;;;;;;1.67;0.93;;;;;;;-141.50;100.00;63355.56;5038550;28;20068;-80
2023/09/05 09:11:22;;;;;;;1.52;1.08;;;;;;;-141.50;100.00;63355.56;5045520;28;20056;-82
2023/09/05 09:13:56;;;;;;;1.80;0.98;;;;;;;-141.50;100.00;63355.56;5046017;28;20042;-82
2023/09/05 09:16:23;;;;;;;2.67;1.20;;;;;;;-141.50;100.00;63355.56;5028576;28;20060;-82
2023/09/05 09:19:01;;;;;;;3.22;1.17;;;;;;;-141.50;100.00;63355.56;5016058;28;20041;-79
2023/09/05 09:21:32;;;;;;;1.85;1.02;;;;;;;-141.50;100.00;63355.56;5038291;28;20120;-83
2023/09/05 09:24:06;;;;;;;1.65;0.88;;;;;;;-141.50;100.00;63355.56;5040256;28;20551;-84
2023/09/05 09:26:33;;;;;;;2.38;1.10;;;;;;;-141.50;100.00;63355.56;5049173;28;20048;-82
2023/09/05 09:29:02;;;;;;;2.38;1.50;;;;;;;-141.50;100.00;63355.56;5033935;28;20581;-83
2023/09/05 09:31:29;;;;;;;1.40;0.98;;;;;;;-141.50;100.00;63355.56;5047894;28;20041;-80
2023/09/05 09:33:57;;;;;;;1.98;1.15;;;;;;;-141.50;100.00;63355.56;5024895;28;20409;-80
2023/09/05 09:36:33;;;;;;;2.03;1.13;;;;;;;-141.50;100.00;63355.56;5047729;28;20052;-81
2023/09/05 09:39:11;;;;;;;1.75;1.10;;;;;;;-141.50;100.00;63355.56;5034156;28;20541;-80
2023/09/05 09:41:46;;;;;;;1.60;1.00;;;;;;;-141.50;100.00;63355.56;5048351;28;21578;-80
2023/09/05 09:44:32;;;;;;;1.90;0.90;;;;;;;-141.50;100.00;63355.56;5048339;28;20319;-80
2023/09/05 09:47:00;;;;;;;2.00;0.95;;;;;;;-141.50;100.00;63355.56;5049354;28;20045;-82
2023/09/05 09:49:29;;;;;;;2.88;1.08;;;;;;;-141.50;100.00;63355.56;5048543;28;20049;-83
2023/09/05 09:51:57;;;;;;;2.97;1.20;;;;;;;-141.50;100.00;63355.56;5038559;28;20120;-81
2023/09/05 09:54:31;;;;;;;6.28;2.38;;;;;;;-141.50;100.00;63355.56;5038440;28;20060;-82
2023/09/05 09:57:03;;;;;;;2.08;1.10;;;;;;;-141.50;100.00;63355.56;5050071;28;20044;-81
2023/09/05 09:59:36;;;;;;;3.05;1.98;;;;;;;-141.50;100.00;63355.56;5038811;28;20045;-81
2023/09/05 10:02:08;;;;;;;2.10;1.02;;;;;;;-141.50;100.00;63355.56;5045689;28;20467;-83
2023/09/05 10:04:42;;;;;;;2.55;1.30;;;;;;;-141.50;100.00;63355.56;5030980;28;20095;-81
2023/09/05 10:07:14;;;;;;;1.55;0.93;;;;;;;-141.50;100.00;63355.56;5048476;28;20519;-83
2023/09/05 10:09:43;;;;;;;2.17;1.30;;;;;;;-141.50;100.00;63355.56;5038865;28;20166;-81
2023/09/05 10:12:10;;;;;;;1.60;1.10;;;;;;;-141.50;100.00;63355.56;5030465;28;20640;-82
2023/09/05 10:14:38;;;;;;;1.92;1.20;;;;;;;-141.50;100.00;63355.56;5032876;28;20103;-81
2023/09/05 10:17:05;;;;;;;1.50;1.10;;;;;;;-141.50;100.00;63355.56;5049581;28;20055;-81
2023/09/05 10:19:33;;;;;;;1.98;1.00;;;;;;;-141.50;100.00;63355.56;5048313;28;20040;-84
2023/09/05 10:22:00;;;;;;;2.10;1.15;;;;;;;-141.50;100.00;63355.56;5047402;28;20110;-82
2023/09/05 10:24:32;;;;;;;2.03;1.00;;;;;;;-141.50;100.00;63355.56;5047791;28;20044;-81
2023/09/05 10:26:59;;;;;;;1.40;1.02;;;;;;;-141.50;100.00;63355.56;5047572;28;20059;-82
2023/09/05 10:29:46;;;;;;;2.30;1.05;;;;;;;-141.50;100.00;63355.56;5047634;28;20084;-83
2023/09/05 10:32:18;;;;;;;0.95;0.80;;;;;;;-141.50;100.00;63355.56;5047659;28;20049;-81
2023/09/05 10:34:48;;;;;;;1.35;1.02;;;;;;;-141.50;100.00;63355.56;5048174;28;20130;-82
2023/09/05 10:37:18;;;;;;;1.85;1.17;;;;;;;-141.50;100.00;63355.56;5049098;28;20049;-82
2023/09/05 10:39:56;;;;;;;1.58;1.00;;;;;;;-141.50;100.00;63355.56;5005978;28;20067;-81
2023/09/05 10:42:32;;;;;;;1.58;1.10;;;;;;;-141.50;100.00;63355.56;5046246;28;20200;-83
2023/09/05 10:45:28;;;;;;;1.35;0.90;;;;;;;-141.50;100.00;63355.56;5048553;28;20094;-81
2023/09/05 10:48:05;;;;;;;1.35;1.10;;;;;;;-141.50;100.00;63355.56;5048213;28;22480;-81
2023/09/05 10:50:32;;;;;;;1.67;0.90;;;;;;;-141.50;100.00;63355.56;5046534;28;20203;-83
2023/09/05 10:53:10;;;;;;;1.20;0.90;;;;;;;-141.50;100.00;63355.56;5050020;28;20051;-84
2023/09/05 10:55:44;;;;;;;1.48;0.95;;;;;;;-141.50;100.00;63355.56;5042274;28;20094;-83
2023/09/05 10:58:41;;;;;;;1.70;1.17;;;;;;;-141.50;100.00;63355.56;5031865;28;20045;-83
2023/09/05 11:01:31;;;;;;;2.72;1.10;;;;;;;-141.50;100.00;63355.56;5049570;28;20539;-84
2023/09/05 11:04:03;;;;;;;2.42;1.30;;;;;;;-141.50;100.00;63355.56;5020215;28;20568;-83
2023/09/05 11:06:30;;;;;;;1.95;1.30;;;;;;;-141.50;100.00;63355.56;5037457;28;20544;-85
2023/09/05 11:08:57;;;;;;;1.85;1.17;;;;;;;-141.50;100.00;63355.56;5035513;28;20048;-82
2023/09/05 11:11:24;;;;;;;1.58;1.23;;;;;;;-141.50;100.00;63355.56;5057120;28;20445;-84
2023/09/05 11:13:51;;;;;;;1.83;0.90;;;;;;;-141.50;100.00;63355.56;5062351;28;20551;-84
2023/09/05 11:16:18;;;;;;;2.38;1.25;;;;;;;-141.50;100.00;63355.56;5053703;28;20045;-87
2023/09/05 11:18:55;;;;;;;2.00;1.30;;;;;;;-141.50;100.00;63355.56;5071858;28;20055;-86
2023/09/05 11:21:24;;;;;;;1.40;1.10;;;;;;;-141.50;100.00;63355.56;5065069;28;20079;-82